Time,TemperatureF,DewpointF,PressureIn,WindDirection,WindDirectionDegrees,WindSpeedMPH,WindSpeedGustMPH,Humidity,HourlyPrecipIn,Conditions,Clouds,dailyrainin,SoftwareType,DateUTC
2013-05-26 00:02:00,47.2,40.3,30.32,NW,315,0.0,0.0,77,0.00,,,0.00,WUHU216HW,2013-05-26 05:02:00,
2013-05-26 00:07:00,47.2,40.7,30.32,NW,315,0.0,0.0,78,0.00,,,0.00,WUHU216HW,2013-05-26 05:07:00,
2013-05-26 00:12:00,46.8,40.3,30.32,North,0,0.8,0.8,78,0.00,,,0.00,WUHU216HW,2013-05-26 05:12:00,
2013-05-26 00:17:00,46.6,39.8,30.31,North,0,0.0,0.8,77,0.00,,,0.00,WUHU216HW,2013-05-26 05:17:00,
2013-05-26 00:22:00,46.4,40.0,30.31,North,0,0.4,0.5,78,0.00,,,0.00,WUHU216HW,2013-05-26 05:22:00,
2013-05-26 00:27:00,46.3,39.8,30.30,North,0,0.0,0.5,78,0.00,,,0.00,WUHU216HW,2013-05-26 05:27:00,
2013-05-26 00:32:00,46.3,39.8,30.30,North,0,0.0,0.0,78,0.00,,,0.00,WUHU216HW,2013-05-26 05:32:00,
2013-05-26 00:37:00,46.1,39.6,30.30,North,0,0.0,0.0,78,0.00,,,0.00,WUHU216HW,2013-05-26 05:37:00,
2013-05-26 00:42:00,45.9,39.8,30.31,North,0,0.0,0.0,79,0.00,,,0.00,WUHU216HW,2013-05-26 05:42:00,
2013-05-26 00:47:00,45.7,39.6,30.31,North,0,0.0,0.0,79,0.00,,,0.00,WUHU216HW,2013-05-26 05:47:00,
2013-05-26 00:52:00,45.7,39.6,30.31,North,0,0.0,0.0,79,0.00,,,0.00,WUHU216HW,2013-05-26 05:52:00,
2013-05-26 00:57:00,45.5,39.4,30.31,North,0,0.0,0.0,79,0.00,,,0.00,WUHU216HW,2013-05-26 05:57:00,
2013-05-26 01:02:00,45.5,39.8,30.31,North,0,0.0,0.0,80,0.00,,,0.00,WUHU216HW,2013-05-26 06:02:00,
2013-05-26 01:07:00,45.4,39.6,30.30,North,0,0.0,0.2,80,0.00,,,0.00,WUHU216HW,2013-05-26 06:07:00,
2013-05-26 01:12:00,45.2,39.4,30.30,North,0,0.0,0.2,80,0.00,,,0.00,WUHU216HW,2013-05-26 06:12:00,
2013-05-26 01:17:00,45.0,39.2,30.30,North,0,0.0,0.0,80,0.00,,,0.00,WUHU216HW,2013-05-26 06:17:00,
2013-05-26 01:22:00,45.0,39.5,30.30,North,0,0.0,0.0,81,0.00,,,0.00,WUHU216HW,2013-05-26 06:22:00,
2013-05-26 01:27:00,44.6,39.2,30.30,North,0,0.0,0.5,81,0.00,,,0.00,WUHU216HW,2013-05-26 06:27:00,
2013-05-26 01:32:00,44.6,39.2,30.30,North,0,0.0,0.5,81,0.00,,,0.00,WUHU216HW,2013-05-26 06:32:00,
2013-05-26 01:37:00,44.5,39.0,30.29,North,0,0.0,0.2,81,0.00,,,0.00,WUHU216HW,2013-05-26 06:37:00,
2013-05-26 01:42:00,44.3,38.8,30.29,North,0,0.0,0.0,81,0.00,,,0.00,WUHU216HW,2013-05-26 06:42:00,
2013-05-26 01:47:00,44.1,39.0,30.29,North,0,0.0,0.0,82,0.00,,,0.00,WUHU216HW,2013-05-26 06:47:00,
2013-05-26 01:52:00,44.1,39.0,30.29,North,0,0.0,0.0,82,0.00,,,0.00,WUHU216HW,2013-05-26 06:52:00,
2013-05-26 01:57:00,43.9,38.8,30.28,North,0,0.0,0.0,82,0.00,,,0.00,WUHU216HW,2013-05-26 06:57:00,
2013-05-26 02:02:00,43.9,38.8,30.28,North,0,0.0,0.0,82,0.00,,,0.00,WUHU216HW,2013-05-26 07:02:00,
2013-05-26 02:07:00,43.9,38.8,30.28,North,0,0.0,0.0,82,0.00,,,0.00,WUHU216HW,2013-05-26 07:07:00,
2013-05-26 02:12:00,43.9,39.1,30.28,North,0,0.0,0.0,83,0.00,,,0.00,WUHU216HW,2013-05-26 07:12:00,
2013-05-26 02:17:00,43.7,38.9,30.28,North,0,0.0,0.0,83,0.00,,,0.00,WUHU216HW,2013-05-26 07:17:00,
2013-05-26 02:22:00,43.7,38.9,30.27,North,0,0.0,0.0,83,0.00,,,0.00,WUHU216HW,2013-05-26 07:22:00,
2013-05-26 02:27:00,43.6,39.1,30.27,North,0,0.2,0.2,84,0.00,,,0.00,WUHU216HW,2013-05-26 07:27:00,
2013-05-26 02:32:00,43.4,38.9,30.27,North,0,0.0,0.2,84,0.00,,,0.00,WUHU216HW,2013-05-26 07:32:00,
2013-05-26 02:37:00,43.2,38.7,30.27,North,0,0.0,0.2,84,0.00,,,0.00,WUHU216HW,2013-05-26 07:37:00,
2013-05-26 02:42:00,43.2,38.7,30.26,North,0,0.0,0.0,84,0.00,,,0.00,WUHU216HW,2013-05-26 07:42:00,
2013-05-26 02:47:00,43.2,39.0,30.27,North,0,0.7,1.3,85,0.00,,,0.00,WUHU216HW,2013-05-26 07:47:00,
2013-05-26 02:52:00,43.0,38.5,30.26,North,0,0.0,1.3,84,0.00,,,0.00,WUHU216HW,2013-05-26 07:52:00,
2013-05-26 02:57:00,43.0,38.5,30.26,North,0,0.5,0.5,84,0.00,,,0.00,WUHU216HW,2013-05-26 07:57:00,
2013-05-26 03:02:00,43.0,38.8,30.26,North,0,0.0,0.5,85,0.00,,,0.00,WUHU216HW,2013-05-26 08:02:00,
2013-05-26 03:07:00,43.0,38.8,30.26,North,0,0.0,0.2,85,0.00,,,0.00,WUHU216HW,2013-05-26 08:07:00,
2013-05-26 03:12:00,43.0,38.8,30.27,North,0,0.2,0.5,85,0.00,,,0.00,WUHU216HW,2013-05-26 08:12:00,
2013-05-26 03:17:00,42.8,38.6,30.26,North,0,0.5,0.8,85,0.00,,,0.00,WUHU216HW,2013-05-26 08:17:00,
2013-05-26 03:22:00,42.8,38.6,30.26,North,0,0.0,0.8,85,0.00,,,0.00,WUHU216HW,2013-05-26 08:22:00,
2013-05-26 03:27:00,42.7,38.4,30.26,North,0,0.8,0.8,85,0.00,,,0.00,WUHU216HW,2013-05-26 08:27:00,
2013-05-26 03:32:00,42.7,38.4,30.27,North,0,0.4,1.1,85,0.00,,,0.00,WUHU216HW,2013-05-26 08:32:00,
2013-05-26 03:37:00,42.7,38.4,30.27,North,0,0.0,1.1,85,0.00,,,0.00,WUHU216HW,2013-05-26 08:37:00,
2013-05-26 03:42:00,42.7,38.4,30.27,North,0,0.0,0.0,85,0.00,,,0.00,WUHU216HW,2013-05-26 08:42:00,
2013-05-26 03:47:00,42.7,38.4,30.27,NNE,23,0.0,0.0,85,0.00,,,0.00,WUHU216HW,2013-05-26 08:47:00,
2013-05-26 03:52:00,42.5,38.5,30.27,ENE,68,0.0,0.8,86,0.00,,,0.00,WUHU216HW,2013-05-26 08:52:00,
2013-05-26 03:57:00,42.5,38.5,30.28,ENE,68,0.0,0.8,86,0.00,,,0.00,WUHU216HW,2013-05-26 08:57:00,
2013-05-26 04:02:00,42.5,38.5,30.27,ENE,68,0.0,0.5,86,0.00,,,0.00,WUHU216HW,2013-05-26 09:02:00,
2013-05-26 04:07:00,42.5,38.5,30.27,ENE,68,0.0,0.0,86,0.00,,,0.00,WUHU216HW,2013-05-26 09:07:00,
2013-05-26 04:12:00,42.5,38.3,30.27,ENE,68,0.5,0.5,85,0.00,,,0.00,WUHU216HW,2013-05-26 09:12:00,
2013-05-26 04:17:00,42.5,38.3,30.27,ENE,68,0.2,0.5,85,0.00,,,0.00,WUHU216HW,2013-05-26 09:17:00,
2013-05-26 04:22:00,42.5,38.3,30.27,ENE,68,0.0,0.5,85,0.00,,,0.00,WUHU216HW,2013-05-26 09:22:00,
2013-05-26 04:27:00,42.5,38.5,30.27,NE,45,0.4,0.5,86,0.00,,,0.00,WUHU216HW,2013-05-26 09:27:00,
2013-05-26 04:32:00,42.5,38.3,30.27,NE,45,0.5,1.1,85,0.00,,,0.00,WUHU216HW,2013-05-26 09:32:00,
2013-05-26 04:37:00,42.5,38.5,30.27,NE,45,0.0,1.1,86,0.00,,,0.00,WUHU216HW,2013-05-26 09:37:00,
2013-05-26 04:42:00,42.5,38.5,30.27,NE,45,0.0,0.5,86,0.00,,,0.00,WUHU216HW,2013-05-26 09:42:00,
2013-05-26 04:47:00,42.5,38.5,30.28,NE,45,0.0,0.0,86,0.00,,,0.00,WUHU216HW,2013-05-26 09:47:00,
2013-05-26 04:52:00,42.5,38.5,30.28,NE,45,0.0,0.0,86,0.00,,,0.00,WUHU216HW,2013-05-26 09:52:00,
2013-05-26 04:57:00,42.7,38.7,30.28,NE,45,0.0,0.0,86,0.00,,,0.00,WUHU216HW,2013-05-26 09:57:00,
2013-05-26 05:02:00,42.7,38.7,30.28,NE,45,0.0,0.2,86,0.00,,,0.00,WUHU216HW,2013-05-26 10:02:00,
2013-05-26 05:07:00,42.7,38.7,30.28,NE,45,0.0,0.2,86,0.00,,,0.00,WUHU216HW,2013-05-26 10:07:00,
2013-05-26 05:12:00,42.7,38.7,30.28,NE,45,0.0,0.0,86,0.00,,,0.00,WUHU216HW,2013-05-26 10:12:00,
2013-05-26 05:17:00,42.7,38.7,30.28,NE,45,0.0,0.0,86,0.00,,,0.00,WUHU216HW,2013-05-26 10:17:00,
2013-05-26 05:22:00,42.7,38.7,30.28,NE,45,0.0,0.0,86,0.00,,,0.00,WUHU216HW,2013-05-26 10:22:00,
2013-05-26 05:27:00,42.7,39.1,30.28,NE,45,0.0,0.5,87,0.00,,,0.00,WUHU216HW,2013-05-26 10:27:00,
2013-05-26 05:32:00,42.8,38.9,30.28,NE,45,0.0,0.5,86,0.00,,,0.00,WUHU216HW,2013-05-26 10:32:00,
2013-05-26 05:37:00,42.8,39.3,30.28,NE,45,0.5,0.5,87,0.00,,,0.00,WUHU216HW,2013-05-26 10:37:00,
2013-05-26 05:42:00,43.2,39.6,30.28,NNE,23,0.8,1.3,87,0.00,,,0.00,WUHU216HW,2013-05-26 10:42:00,
2013-05-26 05:47:00,43.6,40.2,30.28,NE,46,1.3,2.2,88,0.00,,,0.00,WUHU216HW,2013-05-26 10:47:00,
2013-05-26 05:52:00,44.5,41.5,30.28,NE,45,0.2,2.2,89,0.00,,,0.00,WUHU216HW,2013-05-26 10:52:00,
2013-05-26 05:57:00,44.6,41.7,30.28,NE,45,0.5,1.3,89,0.00,,,0.00,WUHU216HW,2013-05-26 10:57:00,
2013-05-26 06:02:00,45.0,42.0,30.28,ESE,113,0.5,0.5,89,0.00,,,0.00,WUHU216HW,2013-05-26 11:02:00,
2013-05-26 06:07:00,45.2,42.2,30.28,ESE,113,0.5,0.5,89,0.00,,,0.00,WUHU216HW,2013-05-26 11:07:00,
2013-05-26 06:12:00,45.4,42.7,30.27,East,84,0.7,1.3,90,0.00,,,0.00,WUHU216HW,2013-05-26 11:12:00,
2013-05-26 06:17:00,45.7,43.0,30.27,ENE,68,1.9,1.9,90,0.00,,,0.00,WUHU216HW,2013-05-26 11:17:00,
2013-05-26 06:22:00,46.1,43.1,30.27,East,83,0.8,2.2,89,0.00,,,0.00,WUHU216HW,2013-05-26 11:22:00,
2013-05-26 06:27:00,46.3,42.9,30.27,East,90,0.7,2.2,88,0.00,,,0.00,WUHU216HW,2013-05-26 11:27:00,
2013-05-26 06:32:00,46.4,43.1,30.27,East,100,0.9,1.3,88,0.00,,,0.00,WUHU216HW,2013-05-26 11:32:00,
2013-05-26 06:37:00,47.0,43.7,30.27,ENE,68,0.4,1.3,88,0.00,,,0.00,WUHU216HW,2013-05-26 11:37:00,
2013-05-26 06:42:00,48.4,45.1,30.27,East,90,0.5,1.3,88,0.00,,,0.00,WUHU216HW,2013-05-26 11:42:00,
2013-05-26 06:47:00,50.0,46.3,30.28,East,90,0.5,1.3,87,0.00,,,0.00,WUHU216HW,2013-05-26 11:47:00,
2013-05-26 06:52:00,51.1,46.7,30.28,ESE,102,1.0,1.6,85,0.00,,,0.00,WUHU216HW,2013-05-26 11:52:00,
2013-05-26 06:57:00,51.3,46.3,30.28,SE,135,0.2,1.6,83,0.00,,,0.00,WUHU216HW,2013-05-26 11:57:00,
2013-05-26 07:02:00,51.3,46.0,30.28,SE,135,0.0,1.3,82,0.00,,,0.00,WUHU216HW,2013-05-26 12:02:00,
2013-05-26 07:07:00,51.5,46.2,30.28,SSE,158,1.3,2.2,82,0.00,,,0.00,WUHU216HW,2013-05-26 12:07:00,
2013-05-26 07:12:00,51.5,46.2,30.29,SSE,152,1.1,2.2,82,0.00,,,0.00,WUHU216HW,2013-05-26 12:12:00,
2013-05-26 07:17:00,51.7,46.0,30.30,SE,131,1.6,2.2,81,0.00,,,0.00,WUHU216HW,2013-05-26 12:17:00,
2013-05-26 07:22:00,52.0,46.4,30.30,SE,144,1.4,3.0,81,0.00,,,0.00,WUHU216HW,2013-05-26 12:22:00,
2013-05-26 07:27:00,52.2,46.3,30.29,SE,135,2.2,3.0,80,0.00,,,0.00,WUHU216HW,2013-05-26 12:27:00,
2013-05-26 07:32:00,52.6,46.6,30.30,SSE,158,0.9,3.0,80,0.00,,,0.00,WUHU216HW,2013-05-26 12:32:00,
2013-05-26 07:37:00,53.1,47.2,30.29,SSE,148,2.5,3.0,80,0.00,,,0.00,WUHU216HW,2013-05-26 12:37:00,
2013-05-26 07:42:00,53.6,47.3,30.30,SSE,149,2.6,3.5,79,0.00,,,0.00,WUHU216HW,2013-05-26 12:42:00,
2013-05-26 07:47:00,54.0,47.4,30.29,SSE,157,2.6,3.7,78,0.00,,,0.00,WUHU216HW,2013-05-26 12:47:00,
2013-05-26 07:52:00,54.4,47.6,30.30,SSE,148,1.4,3.7,78,0.00,,,0.00,WUHU216HW,2013-05-26 12:52:00,
2013-05-26 07:57:00,55.1,48.7,30.29,SSE,158,3.0,4.6,79,0.00,,,0.00,WUHU216HW,2013-05-26 12:57:00,
2013-05-26 08:02:00,55.6,48.5,30.29,SSE,165,3.3,4.6,77,0.00,,,0.00,WUHU216HW,2013-05-26 13:02:00,
2013-05-26 08:07:00,55.8,48.0,30.29,SE,135,7.2,8.3,75,0.00,,,0.00,WUHU216HW,2013-05-26 13:07:00,
2013-05-26 08:12:00,56.0,47.4,30.29,SSE,149,5.5,8.9,73,0.00,,,0.00,WUHU216HW,2013-05-26 13:12:00,
2013-05-26 08:17:00,56.0,47.4,30.29,SSE,156,2.1,8.9,73,0.00,,,0.00,WUHU216HW,2013-05-26 13:17:00,
2013-05-26 08:22:00,56.2,47.6,30.29,SE,135,4.8,4.8,73,0.00,,,0.00,WUHU216HW,2013-05-26 13:22:00,
2013-05-26 08:27:00,56.5,48.0,30.30,South,171,2.5,5.2,73,0.00,,,0.00,WUHU216HW,2013-05-26 13:27:00,
2013-05-26 08:32:00,56.7,47.4,30.30,SE,140,6.0,7.8,71,0.00,,,0.00,WUHU216HW,2013-05-26 13:32:00,
2013-05-26 08:37:00,56.9,47.9,30.30,SSE,147,2.8,7.8,72,0.00,,,0.00,WUHU216HW,2013-05-26 13:37:00,
2013-05-26 08:42:00,57.2,48.2,30.30,South,180,3.0,4.6,72,0.00,,,0.00,WUHU216HW,2013-05-26 13:42:00,
2013-05-26 08:47:00,57.6,48.6,30.30,SE,143,2.0,4.3,72,0.00,,,0.00,WUHU216HW,2013-05-26 13:47:00,
2013-05-26 08:52:00,57.8,48.4,30.30,SSE,158,4.1,6.5,71,0.00,,,0.00,WUHU216HW,2013-05-26 13:52:00,
2013-05-26 08:57:00,58.0,48.2,30.30,SSE,149,4.2,7.8,70,0.00,,,0.00,WUHU216HW,2013-05-26 13:57:00,
2013-05-26 09:02:00,58.0,48.2,30.30,SE,143,3.5,7.8,70,0.00,,,0.00,WUHU216HW,2013-05-26 14:02:00,
2013-05-26 09:07:00,58.3,48.2,30.30,South,179,2.3,5.4,69,0.00,,,0.00,WUHU216HW,2013-05-26 14:07:00,
2013-05-26 09:12:00,58.5,48.3,30.30,SSE,158,4.6,6.5,69,0.00,,,0.00,WUHU216HW,2013-05-26 14:12:00,
2013-05-26 09:17:00,58.7,47.4,30.30,SE,136,5.9,6.7,66,0.00,,,0.00,WUHU216HW,2013-05-26 14:17:00,
2013-05-26 09:22:00,58.9,47.9,30.30,SE,135,4.1,6.7,67,0.00,,,0.00,WUHU216HW,2013-05-26 14:22:00,
2013-05-26 09:27:00,59.0,48.1,30.29,SSE,156,3.9,8.6,67,0.00,,,0.00,WUHU216HW,2013-05-26 14:27:00,
2013-05-26 09:32:00,59.4,48.4,30.29,South,185,3.0,8.6,67,0.00,,,0.00,WUHU216HW,2013-05-26 14:32:00,
2013-05-26 09:37:00,59.8,48.8,30.29,SE,135,2.2,8.3,67,0.00,,,0.00,WUHU216HW,2013-05-26 14:37:00,
2013-05-26 09:42:00,60.1,48.8,30.29,SE,143,3.5,5.4,66,0.00,,,0.00,WUHU216HW,2013-05-26 14:42:00,
2013-05-26 09:47:00,60.5,48.7,30.29,SE,131,3.6,5.4,65,0.00,,,0.00,WUHU216HW,2013-05-26 14:47:00,
2013-05-26 09:52:00,60.8,49.1,30.29,SE,138,3.2,5.4,65,0.00,,,0.00,WUHU216HW,2013-05-26 14:52:00,
2013-05-26 09:57:00,61.2,49.8,30.28,South,173,5.0,11.0,66,0.00,,,0.00,WUHU216HW,2013-05-26 14:57:00,
2013-05-26 10:02:00,61.7,49.9,30.28,SSE,155,2.8,11.0,65,0.00,,,0.00,WUHU216HW,2013-05-26 15:02:00,
2013-05-26 10:07:00,62.3,49.5,30.28,East,95,3.1,8.0,63,0.00,,,0.00,WUHU216HW,2013-05-26 15:07:00,
2013-05-26 10:12:00,62.8,50.1,30.28,SE,135,2.6,4.3,63,0.00,,,0.00,WUHU216HW,2013-05-26 15:12:00,
2013-05-26 10:17:00,63.2,50.3,30.28,South,180,3.0,5.2,63,0.00,,,0.00,WUHU216HW,2013-05-26 15:17:00,
2013-05-26 10:22:00,63.4,50.1,30.29,SSE,160,4.5,5.6,62,0.00,,,0.00,WUHU216HW,2013-05-26 15:22:00,
2013-05-26 10:27:00,63.4,50.5,30.29,South,180,3.2,7.0,63,0.00,,,0.00,WUHU216HW,2013-05-26 15:27:00,
2013-05-26 10:32:00,63.2,50.3,30.29,SSE,165,3.3,7.0,63,0.00,,,0.00,WUHU216HW,2013-05-26 15:32:00,
2013-05-26 10:37:00,63.4,50.5,30.29,SSE,158,5.6,6.1,63,0.00,,,0.00,WUHU216HW,2013-05-26 15:37:00,
2013-05-26 10:42:00,63.4,50.5,30.29,SE,146,3.7,6.5,63,0.00,,,0.00,WUHU216HW,2013-05-26 15:42:00,
2013-05-26 10:47:00,63.5,50.2,30.29,SSE,162,5.9,7.6,62,0.00,,,0.00,WUHU216HW,2013-05-26 15:47:00,
2013-05-26 10:52:00,63.4,50.5,30.29,SE,135,6.7,7.6,63,0.00,,,0.00,WUHU216HW,2013-05-26 15:52:00,
2013-05-26 10:57:00,63.5,50.2,30.29,SE,136,2.6,6.7,62,0.00,,,0.00,WUHU216HW,2013-05-26 15:57:00,
2013-05-26 11:02:00,63.7,50.9,30.29,South,172,2.9,6.5,63,0.00,,,0.00,WUHU216HW,2013-05-26 16:02:00,
2013-05-26 11:07:00,63.7,50.4,30.29,SSE,148,5.8,7.6,62,0.00,,,0.00,WUHU216HW,2013-05-26 16:07:00,
2013-05-26 11:12:00,63.7,50.9,30.29,SSE,158,2.4,7.6,63,0.00,,,0.00,WUHU216HW,2013-05-26 16:12:00,
2013-05-26 11:17:00,64.1,50.8,30.29,SE,144,2.6,6.5,62,0.00,,,0.00,WUHU216HW,2013-05-26 16:17:00,
2013-05-26 11:22:00,64.1,50.3,30.29,SSE,149,2.7,6.7,61,0.00,,,0.00,WUHU216HW,2013-05-26 16:22:00,
2013-05-26 11:27:00,64.1,49.9,30.29,SE,135,2.6,6.7,60,0.00,,,0.00,WUHU216HW,2013-05-26 16:27:00,
2013-05-26 11:32:00,64.4,50.7,30.29,SSE,152,4.5,7.6,61,0.00,,,0.00,WUHU216HW,2013-05-26 16:32:00,
2013-05-26 11:37:00,64.8,51.0,30.29,SE,135,1.1,7.6,61,0.00,,,0.00,WUHU216HW,2013-05-26 16:37:00,
2013-05-26 11:42:00,65.2,50.9,30.29,SE,136,2.7,4.8,60,0.00,,,0.00,WUHU216HW,2013-05-26 16:42:00,
2013-05-26 11:47:00,65.5,51.8,30.29,SSE,158,1.4,4.8,61,0.00,,,0.00,WUHU216HW,2013-05-26 16:47:00,
2013-05-26 11:52:00,65.5,51.3,30.28,South,175,3.1,5.6,60,0.00,,,0.00,WUHU216HW,2013-05-26 16:52:00,
2013-05-26 11:57:00,65.7,51.5,30.29,SSE,158,3.0,5.6,60,0.00,,,0.00,WUHU216HW,2013-05-26 16:57:00,
2013-05-26 12:02:00,65.7,51.0,30.29,SSE,152,5.5,7.6,59,0.00,,,0.00,WUHU216HW,2013-05-26 17:02:00,
2013-05-26 12:08:00,65.7,51.0,30.28,SSE,158,4.1,7.6,59,0.00,,,0.00,WUHU216HW,2013-05-26 17:08:00,
2013-05-26 12:13:00,65.9,51.2,30.28,SE,135,3.5,5.4,59,0.00,,,0.00,WUHU216HW,2013-05-26 17:13:00,
2013-05-26 12:18:00,65.9,51.2,30.28,SE,135,6.5,7.0,59,0.00,,,0.00,WUHU216HW,2013-05-26 17:18:00,
2013-05-26 12:23:00,66.1,50.9,30.28,SE,135,3.5,7.0,58,0.00,,,0.00,WUHU216HW,2013-05-26 17:23:00,
2013-05-26 12:28:00,66.2,51.0,30.28,SSE,158,3.7,6.5,58,0.00,,,0.00,WUHU216HW,2013-05-26 17:28:00,
2013-05-26 12:33:00,66.4,50.2,30.28,East,88,1.1,5.9,56,0.00,,,0.00,WUHU216HW,2013-05-26 17:33:00,
2013-05-26 12:38:00,66.6,50.9,30.28,SSE,158,6.5,7.6,57,0.00,,,0.00,WUHU216HW,2013-05-26 17:38:00,
2013-05-26 12:43:00,66.8,51.0,30.27,South,170,2.9,7.6,57,0.00,,,0.00,WUHU216HW,2013-05-26 17:43:00,
2013-05-26 12:48:00,67.0,50.8,30.27,SE,125,3.4,6.5,56,0.00,,,0.00,WUHU216HW,2013-05-26 17:48:00,
2013-05-26 12:53:00,66.8,48.6,30.27,ESE,121,4.6,5.4,52,0.00,,,0.00,WUHU216HW,2013-05-26 17:53:00,
2013-05-26 12:58:00,66.8,50.6,30.26,SSE,158,5.6,6.5,56,0.00,,,0.00,WUHU216HW,2013-05-26 17:58:00,
2013-05-26 13:03:00,67.0,50.2,30.26,SE,135,3.7,7.6,55,0.00,,,0.00,WUHU216HW,2013-05-26 18:03:00,
2013-05-26 13:08:00,67.3,51.0,30.26,SSE,158,2.2,7.6,56,0.00,,,0.00,WUHU216HW,2013-05-26 18:08:00,
2013-05-26 13:13:00,67.7,51.4,30.25,South,180,4.1,7.6,56,0.00,,,0.00,WUHU216HW,2013-05-26 18:13:00,
2013-05-26 13:18:00,68.2,50.9,30.25,SE,135,8.3,10.2,54,0.00,,,0.00,WUHU216HW,2013-05-26 18:18:00,
2013-05-26 13:23:00,68.6,50.2,30.25,SSE,158,6.5,10.2,52,0.00,,,0.00,WUHU216HW,2013-05-26 18:23:00,
2013-05-26 13:28:00,68.6,50.2,30.25,South,180,5.4,8.3,52,0.00,,,0.00,WUHU216HW,2013-05-26 18:28:00,
2013-05-26 13:33:00,68.8,51.0,30.25,South,180,4.8,6.5,53,0.00,,,0.00,WUHU216HW,2013-05-26 18:33:00,
2013-05-26 13:38:00,68.8,50.4,30.24,SSE,164,6.2,10.0,52,0.00,,,0.00,WUHU216HW,2013-05-26 18:38:00,
2013-05-26 13:43:00,68.9,50.6,30.24,SSE,154,3.1,10.0,52,0.00,,,0.00,WUHU216HW,2013-05-26 18:43:00,
2013-05-26 13:48:00,68.8,50.0,30.24,ESE,108,3.4,7.0,51,0.00,,,0.00,WUHU216HW,2013-05-26 18:48:00,
2013-05-26 13:53:00,69.1,49.8,30.24,SSE,156,4.0,4.8,50,0.00,,,0.00,WUHU216HW,2013-05-26 18:53:00,
2013-05-26 13:58:00,69.1,49.8,30.24,SE,133,4.1,7.6,50,0.00,,,0.00,WUHU216HW,2013-05-26 18:58:00,
2013-05-26 14:03:00,69.5,48.9,30.23,ESE,113,3.7,7.6,48,0.00,,,0.00,WUHU216HW,2013-05-26 19:03:00,
2013-05-26 14:08:00,70.0,50.6,30.23,South,180,3.5,5.6,50,0.00,,,0.00,WUHU216HW,2013-05-26 19:08:00,
2013-05-26 14:13:00,70.9,50.8,30.23,SE,135,10.0,10.0,49,0.00,,,0.00,WUHU216HW,2013-05-26 19:13:00,
2013-05-26 14:18:00,71.5,51.8,30.23,SSE,158,4.8,10.0,50,0.00,,,0.00,WUHU216HW,2013-05-26 19:18:00,
2013-05-26 14:23:00,71.6,49.1,30.23,East,94,3.7,8.3,45,0.00,,,0.00,WUHU216HW,2013-05-26 19:23:00,
2013-05-26 14:28:00,71.6,50.9,30.23,SSE,150,4.6,8.3,48,0.00,,,0.00,WUHU216HW,2013-05-26 19:28:00,
2013-05-26 14:33:00,71.5,50.7,30.23,SE,142,4.9,7.2,48,0.00,,,0.00,WUHU216HW,2013-05-26 19:33:00,
2013-05-26 14:38:00,71.1,50.3,30.23,SSE,148,2.7,7.2,48,0.00,,,0.00,WUHU216HW,2013-05-26 19:38:00,
2013-05-26 14:43:00,70.6,47.5,30.23,East,90,4.1,6.5,44,0.00,,,0.00,WUHU216HW,2013-05-26 19:43:00,
2013-05-26 14:48:00,69.8,48.6,30.23,East,99,3.0,5.2,47,0.00,,,0.00,WUHU216HW,2013-05-26 19:48:00,
2013-05-26 14:53:00,69.8,48.6,30.23,East,90,2.2,5.2,47,0.00,,,0.00,WUHU216HW,2013-05-26 19:53:00,
2013-05-26 14:58:00,70.6,49.2,30.23,East,101,2.3,4.8,47,0.00,,,0.00,WUHU216HW,2013-05-26 19:58:00,
2013-05-26 15:03:00,71.1,50.3,30.23,ESE,107,2.8,4.8,48,0.00,,,0.00,WUHU216HW,2013-05-26 20:03:00,
2013-05-26 15:08:00,70.9,49.6,30.23,SE,135,5.6,6.5,47,0.00,,,0.00,WUHU216HW,2013-05-26 20:08:00,
2013-05-26 15:13:00,71.5,48.9,30.22,ENE,68,4.1,7.2,45,0.00,,,0.00,WUHU216HW,2013-05-26 20:13:00,
2013-05-26 15:18:00,72.0,50.0,30.22,East,95,4.6,7.2,46,0.00,,,0.00,WUHU216HW,2013-05-26 20:18:00,
2013-05-26 15:23:00,72.5,49.9,30.22,SSE,158,8.9,8.9,45,0.00,,,0.00,WUHU216HW,2013-05-26 20:23:00,
2013-05-26 15:28:00,73.1,52.1,30.22,SSW,203,2.4,8.9,48,0.00,,,0.00,WUHU216HW,2013-05-26 20:28:00,
2013-05-26 15:33:00,73.1,51.6,30.22,SE,146,3.6,8.9,47,0.00,,,0.00,WUHU216HW,2013-05-26 20:33:00,
2013-05-26 15:38:00,72.7,50.6,30.22,SE,135,6.7,6.7,46,0.00,,,0.00,WUHU216HW,2013-05-26 20:38:00,
2013-05-26 15:43:00,72.0,49.4,30.22,SSE,158,10.0,10.0,45,0.00,,,0.00,WUHU216HW,2013-05-26 20:43:00,
2013-05-26 15:48:00,72.0,51.1,30.21,SSE,158,3.5,10.0,48,0.00,,,0.00,WUHU216HW,2013-05-26 20:48:00,
2013-05-26 15:53:00,72.0,51.1,30.21,SE,135,5.4,10.0,48,0.00,,,0.00,WUHU216HW,2013-05-26 20:53:00,
2013-05-26 15:58:00,72.0,48.2,30.21,ENE,68,3.0,5.6,43,0.00,,,0.00,WUHU216HW,2013-05-26 20:58:00,
2013-05-26 16:03:00,72.4,50.9,30.21,SE,135,4.8,5.6,47,0.00,,,0.00,WUHU216HW,2013-05-26 21:03:00,
2013-05-26 16:08:00,72.4,52.1,30.22,SSW,203,3.0,4.8,49,0.00,,,0.00,WUHU216HW,2013-05-26 21:08:00,
2013-05-26 16:13:00,71.8,52.7,30.22,South,180,4.5,7.2,51,0.00,,,0.00,WUHU216HW,2013-05-26 21:13:00,
2013-05-26 16:18:00,70.9,52.4,30.22,SW,225,2.4,7.2,52,0.00,,,0.00,WUHU216HW,2013-05-26 21:18:00,
2013-05-26 16:23:00,70.2,52.2,30.21,SSW,206,3.8,4.3,53,0.00,,,0.00,WUHU216HW,2013-05-26 21:23:00,
2013-05-26 16:28:00,69.5,51.6,30.21,SSW,203,4.1,4.6,53,0.00,,,0.00,WUHU216HW,2013-05-26 21:28:00,
2013-05-26 16:33:00,69.1,51.8,30.21,SSW,203,3.0,9.7,54,0.00,,,0.00,WUHU216HW,2013-05-26 21:33:00,
2013-05-26 16:38:00,68.8,51.9,30.21,SSW,201,3.1,9.7,55,0.00,,,0.00,WUHU216HW,2013-05-26 21:38:00,
2013-05-26 16:43:00,68.4,51.6,30.21,South,188,3.5,8.6,55,0.00,,,0.00,WUHU216HW,2013-05-26 21:43:00,
2013-05-26 16:48:00,68.0,51.7,30.20,SSE,158,5.4,5.4,56,0.00,,,0.00,WUHU216HW,2013-05-26 21:48:00,
2013-05-26 16:53:00,67.7,51.4,30.20,SSE,158,4.3,5.4,56,0.00,,,0.00,WUHU216HW,2013-05-26 21:53:00,
2013-05-26 16:58:00,67.5,51.7,30.20,SSW,195,3.8,5.9,57,0.00,,,0.00,WUHU216HW,2013-05-26 21:58:00,
2013-05-26 17:03:00,67.1,51.4,30.20,SSE,158,2.2,5.9,57,0.00,,,0.00,WUHU216HW,2013-05-26 22:03:00,
2013-05-26 17:08:00,67.0,51.7,30.20,SSE,158,5.2,7.0,58,0.00,,,0.00,WUHU216HW,2013-05-26 22:08:00,
2013-05-26 17:13:00,66.8,51.6,30.19,SSE,158,2.6,7.0,58,0.00,,,0.00,WUHU216HW,2013-05-26 22:13:00,
2013-05-26 17:18:00,66.6,51.4,30.19,SSE,160,3.8,7.0,58,0.00,,,0.00,WUHU216HW,2013-05-26 22:18:00,
2013-05-26 17:23:00,66.4,51.7,30.19,SE,135,4.1,7.0,59,0.00,,,0.00,WUHU216HW,2013-05-26 22:23:00,
2013-05-26 17:28:00,66.2,51.6,30.20,SE,135,4.1,4.8,59,0.00,,,0.00,WUHU216HW,2013-05-26 22:28:00,
2013-05-26 17:33:00,66.2,52.0,30.20,SSW,203,2.2,4.6,60,0.00,,,0.00,WUHU216HW,2013-05-26 22:33:00,
2013-05-26 17:38:00,66.4,52.2,30.20,SSW,192,1.1,3.5,60,0.00,,,0.00,WUHU216HW,2013-05-26 22:38:00,
2013-05-26 17:43:00,66.4,52.2,30.19,SSE,158,3.7,3.7,60,0.00,,,0.00,WUHU216HW,2013-05-26 22:43:00,
2013-05-26 17:48:00,66.2,52.0,30.19,SSW,203,2.2,5.4,60,0.00,,,0.00,WUHU216HW,2013-05-26 22:48:00,
2013-05-26 17:53:00,66.2,52.0,30.19,SSW,203,1.3,5.4,60,0.00,,,0.00,WUHU216HW,2013-05-26 22:53:00,
2013-05-26 17:58:00,65.9,51.7,30.18,SSE,158,3.0,4.6,60,0.00,,,0.00,WUHU216HW,2013-05-26 22:58:00,
2013-05-26 18:03:00,65.7,51.5,30.18,SSE,158,2.6,4.6,60,0.00,,,0.00,WUHU216HW,2013-05-26 23:03:00,
2013-05-26 18:08:00,65.5,51.8,30.18,SSE,151,2.3,3.7,61,0.00,,,0.00,WUHU216HW,2013-05-26 23:08:00,
2013-05-26 18:13:00,65.5,51.8,30.18,SSE,158,1.6,3.7,61,0.00,,,0.00,WUHU216HW,2013-05-26 23:13:00,
2013-05-26 18:18:00,65.3,51.6,30.19,SSW,203,1.1,2.4,61,0.00,,,0.00,WUHU216HW,2013-05-26 23:18:00,
2013-05-26 18:23:00,65.2,51.4,30.19,WSW,239,0.6,1.3,61,0.00,,,0.00,WUHU216HW,2013-05-26 23:23:00,
2013-05-26 18:28:00,65.2,51.8,30.20,SSW,203,1.3,1.3,62,0.00,,,0.00,WUHU216HW,2013-05-26 23:28:00,
2013-05-26 18:33:00,65.2,51.8,30.20,SW,225,0.8,1.3,62,0.00,,,0.00,WUHU216HW,2013-05-26 23:33:00,
2013-05-26 18:38:00,65.0,52.0,30.20,SSW,203,1.3,1.9,63,0.00,,,0.00,WUHU216HW,2013-05-26 23:38:00,
2013-05-26 18:43:00,65.0,52.0,30.20,SSW,203,1.1,1.9,63,0.00,,,0.00,WUHU216HW,2013-05-26 23:43:00,
2013-05-26 18:48:00,64.6,51.7,30.20,SW,224,0.8,1.3,63,0.00,,,0.00,WUHU216HW,2013-05-26 23:48:00,
2013-05-26 18:53:00,64.8,52.3,30.20,West,270,1.3,1.9,64,0.00,,,0.00,WUHU216HW,2013-05-26 23:53:00,
2013-05-26 18:58:00,64.6,52.1,30.20,SSW,203,2.2,2.4,64,0.00,,,0.00,WUHU216HW,2013-05-26 23:58:00,
2013-05-26 19:03:00,64.4,51.9,30.19,SSW,203,1.3,2.4,64,0.00,,,0.00,WUHU216HW,2013-05-27 00:03:00,
2013-05-26 19:08:00,64.4,51.9,30.19,SSE,158,4.3,4.6,64,0.00,,,0.00,WUHU216HW,2013-05-27 00:08:00,
2013-05-26 19:13:00,64.3,51.8,30.18,South,180,2.2,4.6,64,0.00,,,0.00,WUHU216HW,2013-05-27 00:13:00,
2013-05-26 19:18:00,64.1,52.0,30.19,SSE,160,0.7,4.3,65,0.00,,,0.00,WUHU216HW,2013-05-27 00:18:00,
2013-05-26 19:23:00,63.9,51.8,30.19,SSE,158,0.7,2.2,65,0.00,,,0.00,WUHU216HW,2013-05-27 00:23:00,
2013-05-26 19:28:00,63.7,52.1,30.19,SSE,158,2.4,2.4,66,0.00,,,0.00,WUHU216HW,2013-05-27 00:28:00,
2013-05-26 19:33:00,63.4,52.2,30.18,SE,135,2.4,3.0,67,0.00,,,0.00,WUHU216HW,2013-05-27 00:33:00,
2013-05-26 19:38:00,63.2,52.0,30.18,SE,135,2.2,3.0,67,0.00,,,0.00,WUHU216HW,2013-05-27 00:38:00,
2013-05-26 19:43:00,62.8,52.1,30.19,SE,135,0.0,3.0,68,0.00,,,0.00,WUHU216HW,2013-05-27 00:43:00,
2013-05-26 19:48:00,62.6,51.9,30.19,SE,135,0.0,2.2,68,0.00,,,0.00,WUHU216HW,2013-05-27 00:48:00,
2013-05-26 19:53:00,62.5,52.2,30.19,SE,135,0.2,0.8,69,0.00,,,0.00,WUHU216HW,2013-05-27 00:53:00,
2013-05-26 19:58:00,62.3,52.4,30.19,SE,135,0.8,0.8,70,0.00,,,0.00,WUHU216HW,2013-05-27 00:58:00,
2013-05-26 20:03:00,61.9,52.1,30.18,SE,135,2.2,2.2,70,0.00,,,0.00,WUHU216HW,2013-05-27 01:03:00,
2013-05-26 20:08:00,61.7,51.9,30.18,SE,143,2.0,2.6,70,0.00,,,0.00,WUHU216HW,2013-05-27 01:08:00,
2013-05-26 20:13:00,61.6,51.8,30.18,SSE,158,1.1,2.6,70,0.00,,,0.00,WUHU216HW,2013-05-27 01:13:00,
2013-05-26 20:18:00,61.4,51.6,30.18,SSE,158,0.8,2.6,70,0.00,,,0.00,WUHU216HW,2013-05-27 01:18:00,
2013-05-26 20:23:00,61.2,51.5,30.18,SSE,158,0.2,2.6,70,0.00,,,0.00,WUHU216HW,2013-05-27 01:23:00,
2013-05-26 20:28:00,61.2,51.9,30.18,SSE,158,1.3,1.3,71,0.00,,,0.00,WUHU216HW,2013-05-27 01:28:00,
2013-05-26 20:33:00,60.8,51.5,30.18,SSE,158,0.0,1.3,71,0.00,,,0.00,WUHU216HW,2013-05-27 01:33:00,
2013-05-26 20:38:00,60.8,51.8,30.18,SSE,158,0.0,1.3,72,0.00,,,0.00,WUHU216HW,2013-05-27 01:38:00,
2013-05-26 20:43:00,60.7,52.0,30.18,SSE,158,0.0,0.0,73,0.00,,,0.00,WUHU216HW,2013-05-27 01:43:00,
2013-05-26 20:48:00,60.5,51.8,30.18,SSE,158,0.0,0.0,73,0.00,,,0.00,WUHU216HW,2013-05-27 01:48:00,
2013-05-26 20:53:00,60.3,52.0,30.18,SSE,158,1.9,1.9,74,0.00,,,0.00,WUHU216HW,2013-05-27 01:53:00,
2013-05-26 20:58:00,60.1,51.8,30.18,SSE,158,0.9,1.9,74,0.00,,,0.00,WUHU216HW,2013-05-27 01:58:00,
2013-05-26 21:03:00,60.1,51.8,30.18,SSE,158,0.0,1.9,74,0.00,,,0.00,WUHU216HW,2013-05-27 02:03:00,
2013-05-26 21:08:00,60.1,51.8,30.19,SSE,158,0.0,0.2,74,0.00,,,0.00,WUHU216HW,2013-05-27 02:08:00,
2013-05-26 21:13:00,59.9,52.0,30.18,SSE,158,0.0,0.0,75,0.00,,,0.00,WUHU216HW,2013-05-27 02:13:00,
2013-05-26 21:18:00,59.8,51.8,30.19,SSE,158,0.0,0.0,75,0.00,,,0.00,WUHU216HW,2013-05-27 02:18:00,
2013-05-26 21:23:00,59.8,52.2,30.19,SSE,158,0.2,0.2,76,0.00,,,0.00,WUHU216HW,2013-05-27 02:23:00,
2013-05-26 21:28:00,59.6,52.0,30.18,SSE,158,0.5,0.5,76,0.00,,,0.00,WUHU216HW,2013-05-27 02:28:00,
2013-05-26 21:33:00,59.4,51.8,30.18,SSE,158,0.0,0.5,76,0.00,,,0.00,WUHU216HW,2013-05-27 02:33:00,
2013-05-26 21:38:00,59.4,51.8,30.19,SSE,158,0.0,0.5,76,0.00,,,0.00,WUHU216HW,2013-05-27 02:38:00,
2013-05-26 21:43:00,59.4,51.8,30.18,NNE,23,1.1,1.1,76,0.00,,,0.00,WUHU216HW,2013-05-27 02:43:00,
2013-05-26 21:48:00,59.4,52.2,30.18,NE,45,0.4,1.1,77,0.00,,,0.00,WUHU216HW,2013-05-27 02:48:00,
2013-05-26 21:53:00,59.4,52.2,30.18,ENE,68,1.1,1.1,77,0.00,,,0.00,WUHU216HW,2013-05-27 02:53:00,
2013-05-26 21:58:00,59.4,52.2,30.18,ENE,68,0.5,1.3,77,0.00,,,0.00,WUHU216HW,2013-05-27 02:58:00,
2013-05-26 22:03:00,59.4,52.6,30.18,ENE,68,0.7,1.3,78,0.00,,,0.00,WUHU216HW,2013-05-27 03:03:00,
2013-05-26 22:08:00,59.2,52.7,30.18,NE,45,0.5,1.6,79,0.00,,,0.00,WUHU216HW,2013-05-27 03:08:00,
2013-05-26 22:13:00,59.2,52.4,30.18,NE,45,0.2,1.6,78,0.00,,,0.00,WUHU216HW,2013-05-27 03:13:00,
2013-05-26 22:18:00,59.2,52.4,30.18,ENE,68,0.5,1.1,78,0.00,,,0.00,WUHU216HW,2013-05-27 03:18:00,
2013-05-26 22:23:00,59.2,52.4,30.18,ENE,68,0.5,1.1,78,0.00,,,0.00,WUHU216HW,2013-05-27 03:23:00,
2013-05-26 22:28:00,59.2,52.4,30.18,East,90,1.3,1.3,78,0.00,,,0.00,WUHU216HW,2013-05-27 03:28:00,
2013-05-26 22:33:00,59.2,52.4,30.17,East,90,0.2,1.3,78,0.00,,,0.00,WUHU216HW,2013-05-27 03:33:00,
2013-05-26 22:38:00,59.2,52.7,30.17,East,90,0.5,1.3,79,0.00,,,0.00,WUHU216HW,2013-05-27 03:38:00,
2013-05-26 22:43:00,59.2,52.7,30.17,SE,135,1.3,1.3,79,0.00,,,0.00,WUHU216HW,2013-05-27 03:43:00,
2013-05-26 22:48:00,59.2,52.7,30.16,ESE,113,1.3,1.3,79,0.00,,,0.00,WUHU216HW,2013-05-27 03:48:00,
2013-05-26 22:53:00,59.2,52.4,30.16,East,90,0.5,1.3,78,0.00,,,0.00,WUHU216HW,2013-05-27 03:53:00,
2013-05-26 22:58:00,59.0,52.2,30.16,SE,135,1.9,2.4,78,0.00,,,0.00,WUHU216HW,2013-05-27 03:58:00,
2013-05-26 23:01:00,59.0,52.6,30.16,ESE,113,1.4,2.4,79,0.00,,,0.00,WUHU216HW,2013-05-27 04:01:00,
2013-05-26 23:06:00,59.0,52.2,30.16,SSE,158,0.5,2.4,78,0.00,,,0.00,WUHU216HW,2013-05-27 04:06:00,
2013-05-26 23:11:00,59.0,52.2,30.15,SSE,158,0.0,3.5,78,0.00,,,0.00,WUHU216HW,2013-05-27 04:11:00,
2013-05-26 23:16:00,58.9,52.0,30.15,ESE,113,2.2,3.5,78,0.00,,,0.00,WUHU216HW,2013-05-27 04:16:00,
2013-05-26 23:21:00,58.9,52.4,30.15,SSE,154,1.2,2.4,79,0.00,,,0.00,WUHU216HW,2013-05-27 04:21:00,
2013-05-26 23:26:00,58.7,52.2,30.15,East,90,0.6,2.2,79,0.00,,,0.00,WUHU216HW,2013-05-27 04:26:00,
2013-05-26 23:31:00,58.7,52.2,30.15,East,100,0.6,2.2,79,0.00,,,0.00,WUHU216HW,2013-05-27 04:31:00,
2013-05-26 23:36:00,58.7,52.2,30.15,East,90,0.7,1.3,79,0.00,,,0.00,WUHU216HW,2013-05-27 04:36:00,
2013-05-26 23:41:00,58.7,52.2,30.15,East,90,0.0,1.1,79,0.00,,,0.00,WUHU216HW,2013-05-27 04:41:00,
2013-05-26 23:46:00,58.7,52.2,30.15,SSE,158,0.7,1.6,79,0.00,,,0.00,WUHU216HW,2013-05-27 04:46:00,
2013-05-26 23:51:00,58.7,52.2,30.15,SE,137,0.7,2.6,79,0.00,,,0.00,WUHU216HW,2013-05-27 04:51:00,
2013-05-26 23:56:00,58.7,52.2,30.15,ESE,113,1.3,2.6,79,0.00,,,0.00,WUHU216HW,2013-05-27 04:56:00,